Time;durP1;ratioP1;P1;durP2;ratioP2;P2;SDS_P1;SDS_P2;PMS_P1;PMS_P2;Temp;Humidity;BMP_temperature;BMP_pressure;BME280_temperature;BME280_humidity;BME280_pressure;Samples;Min_cycle;Max_cycle;Signal;HPM_P1;HPM_P2
2023/05/02 00:00:37;;;;;;;;;;;;;;;17.14;61.72;101707.59;1250674;23;638;-67
2023/05/02 00:01:27;;;;;;;;;;;;;;;17.16;62.66;101702.94;1250848;23;673;-67
2023/05/02 00:02:17;;;;;;;;;;;;;;;17.20;62.65;101700.84;1246799;23;614;-67
2023/05/02 00:03:08;;;;;;;;;;;;;;;17.19;62.08;101699.16;1250837;23;665;-67
2023/05/02 00:03:58;;;;;;;;;;;;;;;17.09;62.23;101693.63;1251101;23;661;-67
2023/05/02 00:04:49;;;;;;;;;;;;;;;17.12;62.45;101697.91;1250969;23;662;-66
2023/05/02 00:05:39;;;;;;;;;;;;;;;17.16;62.36;101700.25;1251160;23;712;-66
2023/05/02 00:06:30;;;;;;;;;;;;;;;17.12;62.40;101698.78;1247066;23;1945;-67
2023/05/02 00:07:21;;;;;;;;;;;;;;;17.18;62.24;101701.00;1250772;23;665;-67
2023/05/02 00:08:12;;;;;;;;;;;;;;;17.19;62.63;101697.31;1250994;23;626;-67
2023/05/02 00:09:02;;;;;;;;;;;;;;;17.15;62.78;101694.97;1250688;23;649;-67
2023/05/02 00:09:52;;;;;;;;;;;;;;;17.18;62.45;101695.59;1247258;23;678;-66
2023/05/02 00:10:43;;;;;;;;;;;;;;;17.21;62.99;101699.88;1251127;23;633;-66
2023/05/02 00:11:33;;;;;;;;;;;;;;;17.26;62.35;101700.38;1246617;23;627;-67
2023/05/02 00:12:24;;;;;;;;;;;;;;;17.27;62.62;101702.09;1251120;23;713;-67
2023/05/02 00:13:14;;;;;;;;;;;;;;;17.26;62.08;101708.44;1246779;23;607;-67
2023/05/02 00:14:05;;;;;;;;;;;;;;;17.26;62.71;101711.13;1246710;23;666;-67
2023/05/02 00:14:55;;;;;;;;;;;;;;;17.17;61.56;101699.28;1250698;23;637;-67
2023/05/02 00:15:45;;;;;;;;;;;;;;;17.02;60.80;101697.75;1250958;23;638;-67
2023/05/02 00:16:36;;;;;;;;;;;;;;;17.04;61.76;101700.34;1250827;23;642;-67
2023/05/02 00:17:26;;;;;;;;;;;;;;;17.07;62.24;101708.19;1251045;23;669;-66
2023/05/02 00:18:17;;;;;;;;;;;;;;;17.06;62.01;101706.47;1251063;23;613;-67
2023/05/02 00:19:07;;;;;;;;;;;;;;;17.01;62.13;101706.84;1251274;23;622;-67
2023/05/02 00:19:57;;;;;;;;;;;;;;;17.02;62.45;101709.38;1247039;23;650;-67
2023/05/02 00:20:48;;;;;;;;;;;;;;;17.02;62.35;101709.38;1250828;23;626;-67
2023/05/02 00:21:38;;;;;;;;;;;;;;;16.98;61.86;101710.63;1247178;23;658;-66
2023/05/02 00:22:29;;;;;;;;;;;;;;;16.97;62.79;101714.31;1247691;23;682;-67
2023/05/02 00:23:19;;;;;;;;;;;;;;;17.09;63.28;101714.31;1247398;23;683;-67
2023/05/02 00:24:10;;;;;;;;;;;;;;;17.10;63.09;101719.56;1246973;23;666;-67
2023/05/02 00:25:00;;;;;;;;;;;;;;;17.07;62.37;101716.25;1251139;23;630;-67
2023/05/02 00:25:51;;;;;;;;;;;;;;;17.02;61.56;101717.47;1250873;23;665;-66
2023/05/02 00:26:41;;;;;;;;;;;;;;;17.04;62.87;101717.34;1250923;23;1945;-66
2023/05/02 00:27:32;;;;;;;;;;;;;;;17.02;62.13;101706.69;1250885;23;645;-66
2023/05/02 00:28:22;;;;;;;;;;;;;;;17.08;62.91;101717.97;1250908;23;653;-66
2023/05/02 00:29:13;;;;;;;;;;;;;;;17.05;62.84;101707.44;1250908;23;634;-66
2023/05/02 00:30:03;;;;;;;;;;;;;;;16.98;62.31;101717.84;1250647;23;614;-66
2023/05/02 00:30:53;;;;;;;;;;;;;;;16.96;63.08;101715.28;1247037;23;647;-66
2023/05/02 00:31:44;;;;;;;;;;;;;;;16.99;62.20;101708.81;1251084;23;626;-66
2023/05/02 00:32:34;;;;;;;;;;;;;;;16.87;62.18;101715.97;1251175;23;625;-66
2023/05/02 00:33:25;;;;;;;;;;;;;;;16.85;63.03;101711.69;1247500;23;631;-66
2023/05/02 00:34:15;;;;;;;;;;;;;;;16.88;63.59;101715.00;1247264;23;639;-66
2023/05/02 00:35:05;;;;;;;;;;;;;;;16.98;63.54;101710.63;1247666;23;638;-66
2023/05/02 00:35:56;;;;;;;;;;;;;;;17.07;63.37;101711.72;1250764;23;689;-66
2023/05/02 00:36:46;;;;;;;;;;;;;;;17.08;62.94;101708.06;1251113;23;673;-66
2023/05/02 00:37:37;;;;;;;;;;;;;;;17.04;62.93;101706.59;1250786;23;649;-66
2023/05/02 00:38:28;;;;;;;;;;;;;;;17.07;62.50;101716.25;1250751;23;622;-66
2023/05/02 00:39:18;;;;;;;;;;;;;;;16.97;61.59;101711.63;1251074;23;638;-66
2023/05/02 00:40:09;;;;;;;;;;;;;;;16.94;62.31;101719.91;1247142;23;662;-65
2023/05/02 00:40:59;;;;;;;;;;;;;;;17.00;62.54;101715.91;1249523;23;775;-66
2023/05/02 00:41:50;;;;;;;;;;;;;;;16.99;62.54;101720.44;1250947;23;613;-66
2023/05/02 00:42:40;;;;;;;;;;;;;;;17.00;62.15;101724.84;1250670;23;801;-66
2023/05/02 00:43:30;;;;;;;;;;;;;;;16.93;62.54;101725.44;1250975;23;1032;-66
2023/05/02 00:44:21;;;;;;;;;;;;;;;16.83;62.42;101719.91;1250892;23;622;-66
2023/05/02 00:45:11;;;;;;;;;;;;;;;16.79;63.22;101721.13;1250989;23;1246;-66
2023/05/02 00:46:02;;;;;;;;;;;;;;;16.87;62.62;101721.34;1250746;23;674;-66
2023/05/02 00:46:52;;;;;;;;;;;;;;;16.89;62.50;101730.19;1250922;23;1910;-65
2023/05/02 00:47:43;;;;;;;;;;;;;;;16.88;62.23;101728.47;1250891;23;649;-66
2023/05/02 00:48:33;;;;;;;;;;;;;;;16.84;62.50;101735.06;1250930;23;614;-66
2023/05/02 00:49:24;;;;;;;;;;;;;;;16.86;62.59;101733.09;1251094;23;653;-66
2023/05/02 00:50:14;;;;;;;;;;;;;;;16.92;62.54;101735.34;1250697;23;657;-66
2023/05/02 00:51:05;;;;;;;;;;;;;;;17.00;62.93;101732.06;1247489;23;686;-66
2023/05/02 00:51:55;;;;;;;;;;;;;;;17.02;62.34;101741.72;1247141;23;631;-66
2023/05/02 00:52:46;;;;;;;;;;;;;;;16.99;61.70;101739.28;1247541;23;564;-66
2023/05/02 00:53:36;;;;;;;;;;;;;;;16.85;61.44;101739.47;1247050;23;654;-66
2023/05/02 00:54:26;;;;;;;;;;;;;;;16.89;62.95;101734.72;1246850;23;662;-67
2023/05/02 00:55:17;;;;;;;;;;;;;;;16.90;62.86;101741.81;1250352;23;684;-66
2023/05/02 00:56:08;;;;;;;;;;;;;;;16.83;62.76;101736.06;1251244;23;569;-66
2023/05/02 00:56:59;;;;;;;;;;;;;;;16.85;62.72;101744.00;1247058;23;624;-66
2023/05/02 00:57:49;;;;;;;;;;;;;;;16.86;62.32;101738.50;1251047;23;622;-66
2023/05/02 00:58:40;;;;;;;;;;;;;;;16.93;62.70;101747.81;1249169;23;653;-66
2023/05/02 00:59:30;;;;;;;;;;;;;;;16.91;62.31;101755.16;1250999;23;661;-66
2023/05/02 01:00:21;;;;;;;;;;;;;;;16.87;62.91;101745.59;1250719;23;693;-66
2023/05/02 01:01:11;;;;;;;;;;;;;;;16.93;63.16;101753.22;1246515;23;615;-67
2023/05/02 01:02:02;;;;;;;;;;;;;;;17.04;62.83;101749.66;1246890;23;619;-66
2023/05/02 01:02:52;;;;;;;;;;;;;;;17.06;62.46;101755.81;1249137;23;815;-66
2023/05/02 01:03:43;;;;;;;;;;;;;;;17.05;62.50;101755.91;1247821;23;642;-66
2023/05/02 01:04:33;;;;;;;;;;;;;;;17.04;62.20;101756.88;1248906;23;662;-66
2023/05/02 01:05:24;;;;;;;;;;;;;;;16.98;62.04;101755.56;1250782;23;609;-66
2023/05/02 01:06:15;;;;;;;;;;;;;;;16.85;63.01;101758.31;1250624;23;676;-66
2023/05/02 01:07:05;;;;;;;;;;;;;;;16.88;62.96;101750.00;1250862;23;684;-66
2023/05/02 01:07:56;;;;;;;;;;;;;;;16.95;63.41;101751.25;1247147;23;801;-66
2023/05/02 01:08:47;;;;;;;;;;;;;;;16.95;63.44;101751.25;1246751;23;626;-66
2023/05/02 01:09:37;;;;;;;;;;;;;;;17.00;63.03;101751.78;1250452;23;719;-66
2023/05/02 01:10:28;;;;;;;;;;;;;;;17.06;62.53;101750.41;1250786;23;676;-66
2023/05/02 01:11:19;;;;;;;;;;;;;;;17.09;62.65;101758.25;1246679;23;717;-66
2023/05/02 01:12:10;;;;;;;;;;;;;;;17.13;63.14;101751.66;1247277;23;677;-66
2023/05/02 01:13:00;;;;;;;;;;;;;;;17.18;62.18;101756.69;1251263;23;673;-66
2023/05/02 01:13:51;;;;;;;;;;;;;;;17.21;62.11;101753.75;1251024;23;711;-66
2023/05/02 01:14:41;;;;;;;;;;;;;;;17.21;62.30;101754.59;1251340;23;798;-66
2023/05/02 01:15:32;;;;;;;;;;;;;;;17.22;62.68;101759.00;1251148;23;617;-66
2023/05/02 01:16:22;;;;;;;;;;;;;;;17.16;62.84;101764.91;1250961;23;664;-66
2023/05/02 01:17:12;;;;;;;;;;;;;;;17.13;62.47;101756.19;1251142;23;681;-66
2023/05/02 01:18:03;;;;;;;;;;;;;;;17.08;62.37;101751.16;1246766;23;836;-66
2023/05/02 01:18:53;;;;;;;;;;;;;;;17.04;62.44;101762.28;1250799;23;634;-67
2023/05/02 01:19:44;;;;;;;;;;;;;;;17.08;62.77;101761.06;1251025;23;657;-66
2023/05/02 01:20:34;;;;;;;;;;;;;;;17.08;62.34;101755.69;1250778;23;712;-66
2023/05/02 01:21:26;;;;;;;;;;;;;;;17.02;61.91;101757.88;1250747;23;626;-66
2023/05/02 01:22:18;;;;;;;;;;;;;;;17.03;63.50;101761.41;1250900;23;664;-66
2023/05/02 01:23:09;;;;;;;;;;;;;;;17.06;63.36;101763.03;1247263;23;949;-66
2023/05/02 01:24:00;;;;;;;;;;;;;;;17.02;63.14;101761.56;1246504;23;674;-66
2023/05/02 01:24:51;;;;;;;;;;;;;;;16.99;62.01;101762.66;1248378;23;681;-66
2023/05/02 01:25:42;;;;;;;;;;;;;;;16.99;63.71;101763.50;1247124;23;623;-66
2023/05/02 01:26:32;;;;;;;;;;;;;;;16.99;63.18;101763.50;1249473;23;1936;-66
2023/05/02 01:27:23;;;;;;;;;;;;;;;17.05;62.66;101758.59;1250828;23;610;-66
2023/05/02 01:28:13;;;;;;;;;;;;;;;17.09;63.05;101768.19;1250671;23;654;-66
2023/05/02 01:29:03;;;;;;;;;;;;;;;17.10;62.21;101769.88;1250906;23;664;-66
2023/05/02 01:29:54;;;;;;;;;;;;;;;17.05;62.65;101766.69;1250775;23;657;-66
2023/05/02 01:30:45;;;;;;;;;;;;;;;17.06;62.58;101768.41;1250813;23;663;-66
2023/05/02 01:31:35;;;;;;;;;;;;;;;17.00;62.10;101775.16;1250617;23;598;-66
2023/05/02 01:32:26;;;;;;;;;;;;;;;17.00;63.17;101773.31;1250854;23;734;-66
2023/05/02 01:33:16;;;;;;;;;;;;;;;16.99;62.20;101779.66;1250785;23;625;-66
2023/05/02 01:34:07;;;;;;;;;;;;;;;16.97;63.09;101776.25;1250843;23;644;-66
2023/05/02 01:34:57;;;;;;;;;;;;;;;17.05;62.89;101775.63;1250564;23;638;-66
2023/05/02 01:35:48;;;;;;;;;;;;;;;17.09;62.23;101768.19;1250728;23;638;-66
2023/05/02 01:36:38;;;;;;;;;;;;;;;17.10;62.63;101783.34;1250783;23;622;-67
2023/05/02 01:37:28;;;;;;;;;;;;;;;17.09;62.17;101784.34;1250882;23;594;-67
2023/05/02 01:38:19;;;;;;;;;;;;;;;17.10;63.04;101784.22;1250721;23;630;-67
2023/05/02 01:39:11;;;;;;;;;;;;;;;17.13;62.47;101793.91;1251055;23;637;-67
2023/05/02 01:40:02;;;;;;;;;;;;;;;17.04;61.34;101786.50;1246959;23;607;-67
2023/05/02 01:40:52;;;;;;;;;;;;;;;17.02;62.77;101783.09;1251024;23;641;-67
2023/05/02 01:41:43;;;;;;;;;;;;;;;17.04;62.60;101786.50;1250783;23;661;-67
2023/05/02 01:42:33;;;;;;;;;;;;;;;17.06;63.21;101780.03;1251308;23;638;-67
2023/05/02 01:43:24;;;;;;;;;;;;;;;17.08;63.12;101788.00;1251037;23;630;-67
2023/05/02 01:44:15;;;;;;;;;;;;;;;17.12;62.74;101794.88;1247094;23;611;-67
2023/05/02 01:45:06;;;;;;;;;;;;;;;17.11;62.48;101782.38;1250818;23;1093;-67
2023/05/02 01:45:56;;;;;;;;;;;;;;;17.04;61.27;101778.44;1250924;23;751;-67
2023/05/02 01:46:47;;;;;;;;;;;;;;;17.02;63.23;101784.78;1250696;23;1909;-67
2023/05/02 01:47:37;;;;;;;;;;;;;;;17.02;62.67;101782.09;1250660;23;680;-66
2023/05/02 01:48:27;;;;;;;;;;;;;;;17.04;63.25;101783.81;1251115;23;646;-67
2023/05/02 01:49:18;;;;;;;;;;;;;;;17.08;62.97;101785.31;1250885;23;630;-66
2023/05/02 01:50:08;;;;;;;;;;;;;;;17.08;63.31;101788.84;1246692;23;637;-66
2023/05/02 01:50:59;;;;;;;;;;;;;;;16.99;62.61;101782.38;1247206;23;647;-66
2023/05/02 01:51:49;;;;;;;;;;;;;;;16.97;62.74;101791.53;1246966;23;662;-66
2023/05/02 01:52:40;;;;;;;;;;;;;;;16.87;62.63;101788.66;1247647;23;631;-66
2023/05/02 01:53:30;;;;;;;;;;;;;;;16.91;63.14;101790.16;1250682;23;629;-67
2023/05/02 01:54:21;;;;;;;;;;;;;;;16.98;63.35;101794.13;1250594;23;770;-66
2023/05/02 01:55:11;;;;;;;;;;;;;;;17.02;63.13;101794.72;1250743;23;676;-67
2023/05/02 01:56:02;;;;;;;;;;;;;;;17.04;62.96;101791.91;1251143;23;641;-67
2023/05/02 01:56:52;;;;;;;;;;;;;;;17.04;63.14;101791.91;1250747;23;603;-67
2023/05/02 01:57:42;;;;;;;;;;;;;;;17.07;62.99;101797.91;1251058;23;650;-67
2023/05/02 01:58:33;;;;;;;;;;;;;;;17.11;62.87;101799.41;1246794;23;750;-67
2023/05/02 01:59:23;;;;;;;;;;;;;;;17.05;61.87;101797.16;1250953;23;689;-67
2023/05/02 02:00:14;;;;;;;;;;;;;;;16.96;61.84;101796.06;1250768;23;660;-67
2023/05/02 02:01:04;;;;;;;;;;;;;;;16.94;62.16;101792.63;1249272;23;661;-67
2023/05/02 02:01:55;;;;;;;;;;;;;;;16.87;61.90;101806.66;1251032;23;633;-67
2023/05/02 02:02:45;;;;;;;;;;;;;;;16.88;62.96;101809.22;1250717;23;680;-66
2023/05/02 02:03:35;;;;;;;;;;;;;;;16.94;63.26;101799.84;1250853;23;609;-66
2023/05/02 02:04:26;;;;;;;;;;;;;;;16.98;62.64;101807.56;1250853;23;660;-66
2023/05/02 02:05:16;;;;;;;;;;;;;;;17.02;62.34;101806.34;1250849;23;645;-66
2023/05/02 02:06:07;;;;;;;;;;;;;;;16.99;62.28;101803.91;1251123;23;685;-67
2023/05/02 02:06:57;;;;;;;;;;;;;;;16.96;62.46;101814.91;1249560;23;1929;-67
2023/05/02 02:07:48;;;;;;;;;;;;;;;17.02;63.03;101811.72;1250552;23;658;-67
2023/05/02 02:08:38;;;;;;;;;;;;;;;17.07;62.16;101810.53;1247759;23;674;-66
2023/05/02 02:09:29;;;;;;;;;;;;;;;17.07;62.53;101818.59;1249896;23;618;-67
2023/05/02 02:10:19;;;;;;;;;;;;;;;17.05;62.92;101818.72;1249971;23;669;-67
2023/05/02 02:11:09;;;;;;;;;;;;;;;17.04;62.90;101819.69;1249567;23;665;-67
2023/05/02 02:12:02;;;;;;;;;;;;;;;17.08;62.62;101812.25;1250497;23;700;-67
2023/05/02 02:12:52;;;;;;;;;;;;;;;17.09;62.63;101822.03;1251710;23;621;-67
2023/05/02 02:13:43;;;;;;;;;;;;;;;17.00;62.21;101816.41;1251322;23;704;-67
2023/05/02 02:14:34;;;;;;;;;;;;;;;17.02;61.68;101826.19;1251302;23;938;-67
2023/05/02 02:15:24;;;;;;;;;;;;;;;16.98;61.95;101821.03;1251417;23;666;-66
2023/05/02 02:16:15;;;;;;;;;;;;;;;16.96;62.45;101827.50;1251320;23;645;-67
2023/05/02 02:17:05;;;;;;;;;;;;;;;17.04;62.76;101821.53;1251111;23;677;-67
2023/05/02 02:17:56;;;;;;;;;;;;;;;16.93;62.32;101825.91;1251399;23;712;-66
2023/05/02 02:18:46;;;;;;;;;;;;;;;16.95;62.98;101823.97;1247003;23;811;-66
2023/05/02 02:19:37;;;;;;;;;;;;;;;16.93;63.10;101822.34;1251476;23;623;-67
2023/05/02 02:20:27;;;;;;;;;;;;;;;16.94;62.76;101830.31;1251129;23;637;-66
2023/05/02 02:21:18;;;;;;;;;;;;;;;16.86;62.81;101826.47;1251381;23;669;-67
2023/05/02 02:22:09;;;;;;;;;;;;;;;16.88;63.04;101822.69;1250887;23;637;-67
2023/05/02 02:22:59;;;;;;;;;;;;;;;16.87;62.97;101829.06;1251305;23;649;-67
2023/05/02 02:23:50;;;;;;;;;;;;;;;16.89;62.51;101829.81;1251450;23;614;-67
2023/05/02 02:24:40;;;;;;;;;;;;;;;16.95;63.11;101826.66;1247629;23;650;-67
2023/05/02 02:25:31;;;;;;;;;;;;;;;16.98;61.90;101833.66;1251389;23;614;-67
2023/05/02 02:26:21;;;;;;;;;;;;;;;16.92;62.19;101832.25;1251255;23;678;-66
2023/05/02 02:27:11;;;;;;;;;;;;;;;16.86;62.76;101832.72;1251365;23;634;-67
2023/05/02 02:28:02;;;;;;;;;;;;;;;16.94;62.91;101834.84;1251395;23;642;-67
2023/05/02 02:28:52;;;;;;;;;;;;;;;16.94;61.79;101835.72;1251544;23;684;-67
2023/05/02 02:29:43;;;;;;;;;;;;;;;16.81;61.61;101840.31;1251385;23;625;-67
2023/05/02 02:30:33;;;;;;;;;;;;;;;16.80;62.76;101833.22;1251552;23;716;-67
2023/05/02 02:31:24;;;;;;;;;;;;;;;16.89;62.97;101835.19;1251300;23;650;-67
2023/05/02 02:32:15;;;;;;;;;;;;;;;16.98;63.03;101841.72;1251474;23;653;-67
2023/05/02 02:33:05;;;;;;;;;;;;;;;16.96;61.84;101840.97;1251185;23;637;-67
2023/05/02 02:33:55;;;;;;;;;;;;;;;16.94;62.90;101841.09;1251459;23;701;-67
2023/05/02 02:34:46;;;;;;;;;;;;;;;16.91;62.65;101840.47;1251307;23;704;-67
2023/05/02 02:35:36;;;;;;;;;;;;;;;16.80;60.08;101843.13;1251396;23;658;-67
2023/05/02 02:36:27;;;;;;;;;;;;;;;16.84;62.68;101842.75;1250728;23;637;-67
2023/05/02 02:37:17;;;;;;;;;;;;;;;16.92;62.75;101837.66;1251408;23;661;-67
2023/05/02 02:38:08;;;;;;;;;;;;;;;16.91;62.57;101840.47;1251336;23;657;-67
2023/05/02 02:38:59;;;;;;;;;;;;;;;16.95;62.34;101837.41;1251306;23;615;-67
2023/05/02 02:39:50;;;;;;;;;;;;;;;16.92;62.42;101843.03;1251501;23;657;-67
2023/05/02 02:40:41;;;;;;;;;;;;;;;16.86;62.46;101840.78;1251593;23;653;-67
2023/05/02 02:41:31;;;;;;;;;;;;;;;16.90;62.59;101844.13;1251297;23;630;-66
2023/05/02 02:42:22;;;;;;;;;;;;;;;16.92;61.90;101839.47;1251360;23;649;-66
2023/05/02 02:43:12;;;;;;;;;;;;;;;16.93;62.84;101844.75;1251293;23;677;-66
2023/05/02 02:44:03;;;;;;;;;;;;;;;16.93;63.02;101850.13;1247337;23;682;-66
2023/05/02 02:44:53;;;;;;;;;;;;;;;16.91;63.04;101846.69;1247834;23;682;-67
2023/05/02 02:45:43;;;;;;;;;;;;;;;16.97;63.07;101846.25;1247947;23;725;-66
2023/05/02 02:46:34;;;;;;;;;;;;;;;17.02;62.76;101846.72;1251262;23;614;-66
2023/05/02 02:47:24;;;;;;;;;;;;;;;16.92;62.36;101834.09;1251024;23;630;-66
2023/05/02 02:48:15;;;;;;;;;;;;;;;16.94;63.01;101846.47;1247159;23;686;-66
2023/05/02 02:49:05;;;;;;;;;;;;;;;16.88;63.09;101840.69;1247931;23;631;-66
2023/05/02 02:49:56;;;;;;;;;;;;;;;16.93;63.09;101852.84;1247659;23;619;-66
2023/05/02 02:50:46;;;;;;;;;;;;;;;17.01;62.55;101841.50;1248263;23;679;-66
2023/05/02 02:51:37;;;;;;;;;;;;;;;17.07;62.44;101850.91;1247581;23;651;-67
2023/05/02 02:52:27;;;;;;;;;;;;;;;16.96;60.70;101849.06;1247685;23;689;-67
2023/05/02 02:53:17;;;;;;;;;;;;;;;16.89;62.59;101858.56;1247842;23;631;-67
2023/05/02 02:54:08;;;;;;;;;;;;;;;16.85;63.26;101863.31;1251339;23;650;-67
2023/05/02 02:54:58;;;;;;;;;;;;;;;16.84;62.78;101856.19;1251490;23;672;-67
2023/05/02 02:55:49;;;;;;;;;;;;;;;16.83;62.59;101859.91;1251326;23;650;-67
2023/05/02 02:56:40;;;;;;;;;;;;;;;16.81;62.88;101861.00;1247571;23;643;-67
2023/05/02 02:57:31;;;;;;;;;;;;;;;16.80;61.99;101861.97;1251442;23;633;-67
2023/05/02 02:58:21;;;;;;;;;;;;;;;16.83;63.14;101867.13;1249750;23;724;-67
2023/05/02 02:59:12;;;;;;;;;;;;;;;16.90;62.95;101871.03;1251352;23;633;-67
2023/05/02 03:00:03;;;;;;;;;;;;;;;16.93;62.85;101866.28;1247452;23;669;-67
2023/05/02 03:00:53;;;;;;;;;;;;;;;16.94;62.53;101870.72;1251229;23;641;-67
2023/05/02 03:01:43;;;;;;;;;;;;;;;16.92;61.63;101867.28;1249591;23;673;-67
2023/05/02 03:02:34;;;;;;;;;;;;;;;16.80;60.42;101865.50;1251178;23;661;-67
2023/05/02 03:03:27;;;;;;;;;;;;;;;16.73;63.22;101875.00;1249654;23;733;-66
2023/05/02 03:04:18;;;;;;;;;;;;;;;16.69;61.70;101878.88;1251167;23;660;-66
2023/05/02 03:05:08;;;;;;;;;;;;;;;16.66;62.14;101874.59;1249624;23;602;-67
2023/05/02 03:05:59;;;;;;;;;;;;;;;16.68;61.97;101882.56;1251388;23;665;-66
2023/05/02 03:06:49;;;;;;;;;;;;;;;16.67;61.51;101875.44;1251414;23;1897;-66
2023/05/02 03:07:40;;;;;;;;;;;;;;;16.57;60.96;101879.78;1251231;23;598;-66
2023/05/02 03:08:30;;;;;;;;;;;;;;;16.64;62.97;101881.09;1251173;23;640;-66
2023/05/02 03:09:21;;;;;;;;;;;;;;;16.71;63.57;101887.72;1251273;23;649;-66
2023/05/02 03:10:11;;;;;;;;;;;;;;;16.73;61.45;101888.47;1251096;23;637;-66
2023/05/02 03:11:01;;;;;;;;;;;;;;;16.72;62.82;101886.75;1247485;23;639;-66
2023/05/02 03:11:52;;;;;;;;;;;;;;;16.65;60.82;101883.66;1247669;23;739;-66
2023/05/02 03:12:42;;;;;;;;;;;;;;;16.61;62.34;101892.03;1249568;23;673;-66
2023/05/02 03:13:33;;;;;;;;;;;;;;;16.58;62.05;101887.72;1251396;23;641;-66
2023/05/02 03:14:23;;;;;;;;;;;;;;;16.62;63.20;101888.38;1251048;23;685;-66
2023/05/02 03:15:14;;;;;;;;;;;;;;;16.73;62.75;101891.16;1251429;23;668;-66
2023/05/02 03:16:04;;;;;;;;;;;;;;;16.74;62.04;101892.88;1251465;23;614;-66
2023/05/02 03:16:55;;;;;;;;;;;;;;;16.79;63.04;101893.41;1251044;23;673;-66
2023/05/02 03:17:45;;;;;;;;;;;;;;;16.65;60.71;101893.56;1251403;23;648;-66
2023/05/02 03:18:36;;;;;;;;;;;;;;;16.51;61.35;101894.53;1251314;23;669;-66
2023/05/02 03:19:26;;;;;;;;;;;;;;;16.46;62.06;101887.78;1251146;23;669;-66
2023/05/02 03:20:17;;;;;;;;;;;;;;;16.51;63.39;101888.28;1250761;23;657;-66
2023/05/02 03:21:07;;;;;;;;;;;;;;;16.66;63.07;101884.50;1251195;23;677;-66
2023/05/02 03:21:58;;;;;;;;;;;;;;;16.79;63.08;101895.22;1251256;23;613;-66
2023/05/02 03:22:48;;;;;;;;;;;;;;;16.84;62.14;101888.50;1247349;23;635;-66
2023/05/02 03:23:38;;;;;;;;;;;;;;;16.85;62.12;101890.22;1247075;23;658;-66
2023/05/02 03:24:29;;;;;;;;;;;;;;;16.90;62.74;101893.44;1251235;23;626;-66
2023/05/02 03:25:19;;;;;;;;;;;;;;;16.87;62.13;101890.97;1251444;23;653;-66
2023/05/02 03:26:10;;;;;;;;;;;;;;;16.91;62.50;101897.84;1251264;23;645;-66
2023/05/02 03:27:00;;;;;;;;;;;;;;;16.86;62.21;101901.84;1250924;23;1909;-66
2023/05/02 03:27:51;;;;;;;;;;;;;;;16.77;61.29;101903.41;1251485;23;622;-66
2023/05/02 03:28:45;;;;;;;;;;;;;;;16.72;62.79;101900.19;1246959;23;666;-66
2023/05/02 03:29:35;;;;;;;;;;;;;;;16.80;62.75;101899.66;1251081;23;621;-66
2023/05/02 03:30:26;;;;;;;;;;;;;;;16.79;62.63;101906.00;1249586;23;650;-66
2023/05/02 03:31:16;;;;;;;;;;;;;;;16.81;62.83;101904.91;1251015;23;677;-66
2023/05/02 03:32:07;;;;;;;;;;;;;;;16.78;61.35;101912.34;1247056;23;611;-66
2023/05/02 03:32:59;;;;;;;;;;;;;;;16.78;62.37;101910.53;1251114;23;681;-66
2023/05/02 03:33:50;;;;;;;;;;;;;;;16.72;60.43;101912.81;1251203;23;637;-66
2023/05/02 03:34:40;;;;;;;;;;;;;;;16.75;62.54;101916.13;1250676;23;708;-66
2023/05/02 03:35:31;;;;;;;;;;;;;;;16.71;60.96;101913.78;1251292;23;686;-66
2023/05/02 03:36:21;;;;;;;;;;;;;;;16.62;62.84;101923.38;1251176;23;664;-66
2023/05/02 03:37:11;;;;;;;;;;;;;;;16.67;63.26;101923.91;1249644;23;673;-66
2023/05/02 03:38:02;;;;;;;;;;;;;;;16.62;62.80;101926.06;1251261;23;700;-66
2023/05/02 03:38:52;;;;;;;;;;;;;;;16.66;62.88;101924.88;1251194;23;677;-66
2023/05/02 03:39:43;;;;;;;;;;;;;;;16.63;61.23;101934.06;1251262;23;665;-66
2023/05/02 03:40:33;;;;;;;;;;;;;;;16.57;61.14;101930.91;1251119;23;669;-66
2023/05/02 03:41:23;;;;;;;;;;;;;;;16.57;62.88;101925.53;1247401;23;627;-66
2023/05/02 03:42:14;;;;;;;;;;;;;;;16.58;63.12;101925.41;1247464;23;646;-66
2023/05/02 03:43:04;;;;;;;;;;;;;;;16.52;60.51;101927.69;1249754;23;819;-66
2023/05/02 03:43:55;;;;;;;;;;;;;;;16.45;62.96;101921.03;1251236;23;646;-66
2023/05/02 03:44:45;;;;;;;;;;;;;;;16.52;63.29;101931.22;1251083;23;665;-66
2023/05/02 03:45:36;;;;;;;;;;;;;;;16.64;63.32;101925.00;1251181;23;617;-66
2023/05/02 03:46:26;;;;;;;;;;;;;;;16.68;62.17;101925.63;1251110;23;608;-66
2023/05/02 03:47:16;;;;;;;;;;;;;;;16.74;62.73;101924.31;1251340;23;629;-66
2023/05/02 03:48:07;;;;;;;;;;;;;;;16.66;62.76;101928.41;1247164;23;670;-66
2023/05/02 03:48:57;;;;;;;;;;;;;;;16.69;62.97;101924.66;1250883;23;669;-66
2023/05/02 03:49:48;;;;;;;;;;;;;;;16.58;60.65;101921.84;1251162;23;664;-66
2023/05/02 03:50:38;;;;;;;;;;;;;;;16.51;60.06;101923.25;1251047;23;665;-66
2023/05/02 03:51:29;;;;;;;;;;;;;;;16.52;63.08;101922.28;1251379;23;622;-66
2023/05/02 03:52:19;;;;;;;;;;;;;;;16.60;63.08;101928.00;1251132;23;728;-66
2023/05/02 03:53:09;;;;;;;;;;;;;;;16.64;63.18;101921.47;1251475;23;658;-66
2023/05/02 03:54:01;;;;;;;;;;;;;;;16.70;62.58;101931.75;1251168;23;637;-66
2023/05/02 03:54:51;;;;;;;;;;;;;;;16.67;62.54;101924.75;1247016;23;734;-66
2023/05/02 03:55:42;;;;;;;;;;;;;;;16.74;62.52;101930.56;1251330;23;673;-66
2023/05/02 03:56:32;;;;;;;;;;;;;;;16.73;62.52;101926.16;1251162;23;657;-66
2023/05/02 03:57:23;;;;;;;;;;;;;;;16.72;62.75;101920.88;1251170;23;618;-66
2023/05/02 03:58:13;;;;;;;;;;;;;;;16.78;62.94;101925.81;1251101;23;704;-66
2023/05/02 03:59:04;;;;;;;;;;;;;;;16.72;60.34;101929.81;1247007;23;627;-66
2023/05/02 03:59:54;;;;;;;;;;;;;;;16.70;62.82;101933.59;1251072;23;641;-66
2023/05/02 04:00:45;;;;;;;;;;;;;;;16.64;62.58;101932.22;1251232;23;633;-66
2023/05/02 04:01:35;;;;;;;;;;;;;;;16.72;62.41;101934.34;1251091;23;689;-66
2023/05/02 04:02:26;;;;;;;;;;;;;;;16.75;62.37;101932.28;1251234;23;649;-66
2023/05/02 04:03:16;;;;;;;;;;;;;;;16.81;62.44;101931.84;1247293;23;670;-66
2023/05/02 04:04:07;;;;;;;;;;;;;;;16.83;61.96;101935.28;1246888;23;674;-66
2023/05/02 04:04:58;;;;;;;;;;;;;;;16.80;62.76;101932.81;1251437;23;634;-66
2023/05/02 04:05:50;;;;;;;;;;;;;;;16.78;62.58;101937.44;1251132;23;696;-66
2023/05/02 04:06:40;;;;;;;;;;;;;;;16.81;62.64;101936.38;1248350;23;1926;-66
2023/05/02 04:07:31;;;;;;;;;;;;;;;16.84;62.50;101936.16;1247452;23;635;-66
2023/05/02 04:08:21;;;;;;;;;;;;;;;16.87;62.52;101931.38;1249833;23;654;-66
2023/05/02 04:09:12;;;;;;;;;;;;;;;16.82;61.95;101938.94;1249143;23;758;-66
2023/05/02 04:10:02;;;;;;;;;;;;;;;16.81;62.70;101934.53;1249506;23;697;-66
2023/05/02 04:10:52;;;;;;;;;;;;;;;16.79;62.60;101939.16;1251366;23;685;-66
2023/05/02 04:11:43;;;;;;;;;;;;;;;16.80;62.40;101938.19;1251137;23;673;-66
2023/05/02 04:12:33;;;;;;;;;;;;;;;16.83;62.64;101948.75;1251034;23;629;-66
2023/05/02 04:13:24;;;;;;;;;;;;;;;16.88;62.32;101945.69;1251113;23;670;-66
2023/05/02 04:14:14;;;;;;;;;;;;;;;16.89;62.11;101939.34;1251073;23;641;-66
2023/05/02 04:15:04;;;;;;;;;;;;;;;16.90;62.21;101944.59;1251184;23;638;-66
2023/05/02 04:15:55;;;;;;;;;;;;;;;16.91;62.77;101949.03;1247604;23;658;-66
2023/05/02 04:16:45;;;;;;;;;;;;;;;16.94;62.23;101954.19;1247746;23;634;-66
2023/05/02 04:17:36;;;;;;;;;;;;;;;16.92;62.14;101945.34;1247871;23;670;-66
2023/05/02 04:18:26;;;;;;;;;;;;;;;16.90;61.94;101941.91;1250615;23;653;-67
2023/05/02 04:19:17;;;;;;;;;;;;;;;16.93;62.32;101951.59;1250585;23;658;-67
2023/05/02 04:20:07;;;;;;;;;;;;;;;16.96;62.18;101952.25;1250645;23;630;-66
2023/05/02 04:20:58;;;;;;;;;;;;;;;16.98;62.16;101944.91;1251011;23;618;-67
2023/05/02 04:21:48;;;;;;;;;;;;;;;16.93;61.24;101951.59;1250924;23;622;-67
2023/05/02 04:22:39;;;;;;;;;;;;;;;16.93;61.76;101951.59;1250922;23;638;-67
2023/05/02 04:23:29;;;;;;;;;;;;;;;16.96;61.58;101960.31;1250803;23;700;-67
2023/05/02 04:24:19;;;;;;;;;;;;;;;16.97;62.08;101953.97;1248716;23;701;-67
2023/05/02 04:25:10;;;;;;;;;;;;;;;16.98;61.81;101955.69;1250819;23;633;-66
2023/05/02 04:26:00;;;;;;;;;;;;;;;16.96;61.59;101954.06;1250776;23;696;-67
2023/05/02 04:26:51;;;;;;;;;;;;;;;16.93;62.03;101957.84;1250920;23;1893;-67